sensor_id;sensor_type;location;lat;lon;timestamp;pressure;altitude;pressure_sealevel;temperature;humidity
30339;BME280;795;49.296;11.348;2022-11-15T00:01:17;96300.25;;;6.24;100.00
30339;BME280;795;49.296;11.348;2022-11-15T00:03:45;96295.16;;;6.30;100.00
30339;BME280;795;49.296;11.348;2022-11-15T00:06:13;96290.78;;;6.39;100.00
30339;BME280;795;49.296;11.348;2022-11-15T00:08:40;96291.19;;;6.44;100.00
30339;BME280;795;49.296;11.348;2022-11-15T00:11:10;96287.13;;;6.40;100.00
30339;BME280;795;49.296;11.348;2022-11-15T00:13:39;96296.84;;;6.31;100.00
30339;BME280;795;49.296;11.348;2022-11-15T00:16:08;96286.03;;;6.33;100.00
30339;BME280;795;49.296;11.348;2022-11-15T00:18:35;96283.66;;;6.30;100.00
30339;BME280;795;49.296;11.348;2022-11-15T00:21:09;96284.88;;;6.45;100.00
30339;BME280;795;49.296;11.348;2022-11-15T00:23:37;96282.38;;;6.71;100.00
30339;BME280;795;49.296;11.348;2022-11-15T00:26:05;96283.47;;;6.95;100.00
30339;BME280;795;49.296;11.348;2022-11-15T00:28:32;96274.25;;;7.07;100.00
30339;BME280;795;49.296;11.348;2022-11-15T00:31:13;96287.56;;;7.17;100.00
30339;BME280;795;49.296;11.348;2022-11-15T00:33:44;96280.47;;;7.25;100.00
30339;BME280;795;49.296;11.348;2022-11-15T00:36:12;96284.03;;;7.34;100.00
30339;BME280;795;49.296;11.348;2022-11-15T00:38:40;96273.06;;;7.37;100.00
30339;BME280;795;49.296;11.348;2022-11-15T00:41:08;96275.59;;;7.39;100.00
30339;BME280;795;49.296;11.348;2022-11-15T00:43:36;96271.84;;;7.49;100.00
30339;BME280;795;49.296;11.348;2022-11-15T00:46:03;96270.56;;;7.53;100.00
30339;BME280;795;49.296;11.348;2022-11-15T00:48:31;96276.41;;;7.57;100.00
30339;BME280;795;49.296;11.348;2022-11-15T00:50:58;96267.09;;;7.61;100.00
30339;BME280;795;49.296;11.348;2022-11-15T00:53:25;96264.00;;;7.65;100.00
30339;BME280;795;49.296;11.348;2022-11-15T00:55:52;96266.50;;;7.67;100.00
30339;BME280;795;49.296;11.348;2022-11-15T00:58:19;96261.16;;;7.67;100.00
30339;BME280;795;49.296;11.348;2022-11-15T01:00:46;96252.28;;;7.66;100.00
30339;BME280;795;49.296;11.348;2022-11-15T01:03:13;96260.59;;;7.63;100.00
30339;BME280;795;49.296;11.348;2022-11-15T01:05:40;96251.03;;;7.53;100.00
30339;BME280;795;49.296;11.348;2022-11-15T01:08:14;96247.03;;;7.39;100.00
30339;BME280;795;49.296;11.348;2022-11-15T01:10:42;96250.81;;;7.28;100.00
30339;BME280;795;49.296;11.348;2022-11-15T01:13:08;96247.38;;;7.18;100.00
30339;BME280;795;49.296;11.348;2022-11-15T01:15:40;96243.00;;;7.17;100.00
30339;BME280;795;49.296;11.348;2022-11-15T01:18:07;96252.72;;;7.18;100.00
30339;BME280;795;49.296;11.348;2022-11-15T01:20:39;96244.91;;;7.07;100.00
30339;BME280;795;49.296;11.348;2022-11-15T01:23:06;96232.84;;;7.03;100.00
30339;BME280;795;49.296;11.348;2022-11-15T01:25:33;96238.56;;;6.91;100.00
30339;BME280;795;49.296;11.348;2022-11-15T01:28:00;96237.25;;;6.77;100.00
30339;BME280;795;49.296;11.348;2022-11-15T01:30:27;96233.63;;;6.68;100.00
30339;BME280;795;49.296;11.348;2022-11-15T01:32:54;96225.19;;;6.55;100.00
30339;BME280;795;49.296;11.348;2022-11-15T01:35:21;96233.47;;;6.52;100.00
30339;BME280;795;49.296;11.348;2022-11-15T01:37:48;96232.88;;;6.58;100.00
30339;BME280;795;49.296;11.348;2022-11-15T01:40:15;96223.38;;;6.74;100.00
30339;BME280;795;49.296;11.348;2022-11-15T01:42:42;96222.38;;;6.75;100.00
30339;BME280;795;49.296;11.348;2022-11-15T01:45:18;96218.28;;;6.80;100.00
30339;BME280;795;49.296;11.348;2022-11-15T01:47:52;96227.28;;;6.79;100.00
30339;BME280;795;49.296;11.348;2022-11-15T01:50:31;96219.25;;;6.79;100.00
30339;BME280;795;49.296;11.348;2022-11-15T01:52:59;96214.31;;;6.84;100.00
30339;BME280;795;49.296;11.348;2022-11-15T01:55:28;96204.19;;;6.88;100.00
30339;BME280;795;49.296;11.348;2022-11-15T01:58:02;96208.13;;;6.84;100.00
30339;BME280;795;49.296;11.348;2022-11-15T02:00:32;96210.97;;;6.82;100.00
30339;BME280;795;49.296;11.348;2022-11-15T02:02:59;96208.59;;;6.79;100.00
30339;BME280;795;49.296;11.348;2022-11-15T02:05:26;96195.53;;;6.76;100.00
30339;BME280;795;49.296;11.348;2022-11-15T02:07:54;96195.63;;;6.66;100.00
30339;BME280;795;49.296;11.348;2022-11-15T02:10:24;96193.09;;;6.65;100.00
30339;BME280;795;49.296;11.348;2022-11-15T02:12:53;96191.34;;;6.56;100.00
30339;BME280;795;49.296;11.348;2022-11-15T02:15:29;96188.81;;;6.54;100.00
30339;BME280;795;49.296;11.348;2022-11-15T02:18:26;96179.28;;;6.52;100.00
30339;BME280;795;49.296;11.348;2022-11-15T02:24:17;96174.44;;;6.65;100.00
30339;BME280;795;49.296;11.348;2022-11-15T02:27:54;96184.16;;;6.56;100.00
30339;BME280;795;49.296;11.348;2022-11-15T02:30:47;96170.75;;;6.48;100.00
30339;BME280;795;49.296;11.348;2022-11-15T02:33:53;96163.75;;;6.47;100.00
30339;BME280;795;49.296;11.348;2022-11-15T02:36:45;96162.88;;;6.47;100.00
30339;BME280;795;49.296;11.348;2022-11-15T02:42:20;96151.16;;;6.40;100.00
30339;BME280;795;49.296;11.348;2022-11-15T02:45:19;96152.28;;;6.37;100.00
30339;BME280;795;49.296;11.348;2022-11-15T02:47:54;96151.06;;;6.32;100.00
30339;BME280;795;49.296;11.348;2022-11-15T02:50:29;96150.00;;;6.25;100.00
30339;BME280;795;49.296;11.348;2022-11-15T02:52:56;96143.28;;;6.21;100.00
30339;BME280;795;49.296;11.348;2022-11-15T02:55:34;96145.94;;;6.21;100.00
30339;BME280;795;49.296;11.348;2022-11-15T02:58:28;96145.69;;;6.14;100.00
30339;BME280;795;49.296;11.348;2022-11-15T03:01:21;96145.69;;;6.14;100.00
30339;BME280;795;49.296;11.348;2022-11-15T03:07:29;96138.94;;;6.37;100.00
30339;BME280;795;49.296;11.348;2022-11-15T03:10:22;96137.56;;;6.60;100.00
30339;BME280;795;49.296;11.348;2022-11-15T03:13:07;96135.97;;;6.67;100.00
30339;BME280;795;49.296;11.348;2022-11-15T03:15:57;96134.91;;;6.78;100.00
30339;BME280;795;49.296;11.348;2022-11-15T03:18:38;96121.19;;;6.73;100.00
30339;BME280;795;49.296;11.348;2022-11-15T03:21:11;96128.47;;;6.71;100.00
30339;BME280;795;49.296;11.348;2022-11-15T03:23:41;96121.31;;;6.72;100.00
30339;BME280;795;49.296;11.348;2022-11-15T03:26:14;96120.16;;;6.74;100.00
30339;BME280;795;49.296;11.348;2022-11-15T03:29:26;96120.47;;;6.71;100.00
30339;BME280;795;49.296;11.348;2022-11-15T03:32:04;96124.69;;;6.56;100.00
30339;BME280;795;49.296;11.348;2022-11-15T03:34:53;96124.50;;;6.40;100.00
30339;BME280;795;49.296;11.348;2022-11-15T03:37:35;96118.53;;;6.28;100.00
30339;BME280;795;49.296;11.348;2022-11-15T03:40:05;96116.16;;;6.25;100.00
30339;BME280;795;49.296;11.348;2022-11-15T03:42:46;96124.13;;;6.08;100.00
30339;BME280;795;49.296;11.348;2022-11-15T03:45:36;96124.03;;;5.99;100.00
30339;BME280;795;49.296;11.348;2022-11-15T03:48:16;96115.59;;;5.67;100.00
30339;BME280;795;49.296;11.348;2022-11-15T03:50:46;96115.75;;;5.66;100.00
30339;BME280;795;49.296;11.348;2022-11-15T03:53:14;96110.25;;;5.67;100.00
30339;BME280;795;49.296;11.348;2022-11-15T03:55:41;96107.69;;;5.85;100.00
30339;BME280;795;49.296;11.348;2022-11-15T03:58:08;96105.16;;;6.11;100.00
30339;BME280;795;49.296;11.348;2022-11-15T04:00:35;96099.59;;;6.31;100.00
30339;BME280;795;49.296;11.348;2022-11-15T04:03:02;96096.31;;;6.37;100.00
30339;BME280;795;49.296;11.348;2022-11-15T04:05:29;96094.84;;;6.25;100.00
30339;BME280;795;49.296;11.348;2022-11-15T04:07:56;96095.47;;;6.37;100.00
30339;BME280;795;49.296;11.348;2022-11-15T04:10:23;96091.06;;;6.45;100.00
30339;BME280;795;49.296;11.348;2022-11-15T04:12:50;96092.38;;;6.41;100.00
30339;BME280;795;49.296;11.348;2022-11-15T04:15:21;96087.84;;;6.42;100.00
30339;BME280;795;49.296;11.348;2022-11-15T04:17:54;96082.44;;;6.34;100.00
30339;BME280;795;49.296;11.348;2022-11-15T04:20:26;96090.84;;;6.39;100.00
30339;BME280;795;49.296;11.348;2022-11-15T04:23:26;96091.69;;;6.39;100.00
30339;BME280;795;49.296;11.348;2022-11-15T04:26:18;96085.78;;;6.36;100.00
30339;BME280;795;49.296;11.348;2022-11-15T04:28:46;96080.91;;;6.31;100.00
30339;BME280;795;49.296;11.348;2022-11-15T04:31:31;96087.72;;;6.43;100.00
30339;BME280;795;49.296;11.348;2022-11-15T04:33:59;96086.72;;;6.44;100.00
30339;BME280;795;49.296;11.348;2022-11-15T04:36:26;96091.22;;;6.44;100.00
30339;BME280;795;49.296;11.348;2022-11-15T04:39:11;96092.03;;;6.44;100.00
30339;BME280;795;49.296;11.348;2022-11-15T04:41:38;96081.69;;;6.41;100.00
30339;BME280;795;49.296;11.348;2022-11-15T04:44:05;96076.88;;;6.27;100.00
30339;BME280;795;49.296;11.348;2022-11-15T04:46:32;96077.72;;;6.10;100.00
30339;BME280;795;49.296;11.348;2022-11-15T04:48:59;96076.53;;;5.95;100.00
30339;BME280;795;49.296;11.348;2022-11-15T04:51:26;96081.75;;;5.77;100.00
30339;BME280;795;49.296;11.348;2022-11-15T04:53:53;96072.25;;;5.75;100.00
30339;BME280;795;49.296;11.348;2022-11-15T04:56:20;96077.34;;;5.68;100.00
30339;BME280;795;49.296;11.348;2022-11-15T04:58:49;96080.13;;;5.67;100.00
30339;BME280;795;49.296;11.348;2022-11-15T05:01:17;96075.31;;;5.43;100.00
30339;BME280;795;49.296;11.348;2022-11-15T05:03:45;96064.91;;;5.22;100.00
30339;BME280;795;49.296;11.348;2022-11-15T05:06:31;96068.13;;;5.16;100.00
30339;BME280;795;49.296;11.348;2022-11-15T05:08:58;96068.81;;;5.18;100.00
30339;BME280;795;49.296;11.348;2022-11-15T05:11:25;96074.00;;;5.20;100.00
30339;BME280;795;49.296;11.348;2022-11-15T05:13:54;96058.75;;;5.12;100.00
30339;BME280;795;49.296;11.348;2022-11-15T05:16:21;96059.88;;;5.10;100.00
30339;BME280;795;49.296;11.348;2022-11-15T05:18:52;96070.81;;;5.07;100.00
30339;BME280;795;49.296;11.348;2022-11-15T05:21:21;96061.97;;;5.06;100.00
30339;BME280;795;49.296;11.348;2022-11-15T05:23:48;96058.25;;;4.90;100.00
30339;BME280;795;49.296;11.348;2022-11-15T05:26:17;96060.94;;;4.70;100.00
30339;BME280;795;49.296;11.348;2022-11-15T05:28:45;96064.72;;;4.58;100.00
30339;BME280;795;49.296;11.348;2022-11-15T05:31:15;96066.69;;;4.47;100.00
30339;BME280;795;49.296;11.348;2022-11-15T05:33:44;96051.72;;;4.36;100.00
30339;BME280;795;49.296;11.348;2022-11-15T05:36:46;96059.41;;;4.20;100.00
30339;BME280;795;49.296;11.348;2022-11-15T05:39:13;96059.97;;;4.14;100.00
30339;BME280;795;49.296;11.348;2022-11-15T05:42:01;96059.25;;;4.12;100.00
30339;BME280;795;49.296;11.348;2022-11-15T05:44:32;96059.69;;;4.17;100.00
30339;BME280;795;49.296;11.348;2022-11-15T05:47:00;96054.78;;;4.22;100.00
30339;BME280;795;49.296;11.348;2022-11-15T05:49:35;96054.38;;;4.36;100.00
30339;BME280;795;49.296;11.348;2022-11-15T05:52:10;96065.00;;;4.36;100.00
30339;BME280;795;49.296;11.348;2022-11-15T05:54:39;96059.25;;;4.41;100.00
30339;BME280;795;49.296;11.348;2022-11-15T05:57:06;96050.59;;;4.39;100.00
30339;BME280;795;49.296;11.348;2022-11-15T05:59:35;96047.66;;;4.42;100.00
30339;BME280;795;49.296;11.348;2022-11-15T06:02:02;96044.03;;;4.43;100.00
30339;BME280;795;49.296;11.348;2022-11-15T06:04:29;96043.47;;;4.49;100.00
30339;BME280;795;49.296;11.348;2022-11-15T06:06:58;96049.06;;;4.65;100.00
30339;BME280;795;49.296;11.348;2022-11-15T06:09:25;96038.81;;;4.89;100.00
30339;BME280;795;49.296;11.348;2022-11-15T06:11:52;96038.59;;;5.10;100.00
30339;BME280;795;49.296;11.348;2022-11-15T06:14:19;96035.63;;;5.22;100.00
30339;BME280;795;49.296;11.348;2022-11-15T06:16:46;96025.78;;;5.32;100.00
30339;BME280;795;49.296;11.348;2022-11-15T06:19:13;96025.06;;;5.40;100.00
30339;BME280;795;49.296;11.348;2022-11-15T06:21:40;96039.75;;;5.44;100.00
30339;BME280;795;49.296;11.348;2022-11-15T06:24:07;96033.41;;;5.45;100.00
30339;BME280;795;49.296;11.348;2022-11-15T06:26:35;96042.66;;;5.51;100.00
30339;BME280;795;49.296;11.348;2022-11-15T06:29:04;96041.69;;;5.52;100.00
30339;BME280;795;49.296;11.348;2022-11-15T06:31:33;96034.53;;;5.52;100.00
30339;BME280;795;49.296;11.348;2022-11-15T06:34:00;96040.16;;;5.49;100.00
30339;BME280;795;49.296;11.348;2022-11-15T06:36:27;96037.38;;;5.41;100.00
30339;BME280;795;49.296;11.348;2022-11-15T06:38:53;96044.81;;;5.38;100.00
30339;BME280;795;49.296;11.348;2022-11-15T06:41:20;96042.28;;;5.36;100.00
30339;BME280;795;49.296;11.348;2022-11-15T06:43:47;96045.09;;;5.34;100.00
30339;BME280;795;49.296;11.348;2022-11-15T06:46:14;96054.91;;;5.34;100.00
30339;BME280;795;49.296;11.348;2022-11-15T06:48:41;96053.06;;;5.44;100.00
30339;BME280;795;49.296;11.348;2022-11-15T06:51:08;96057.72;;;5.60;100.00
30339;BME280;795;49.296;11.348;2022-11-15T06:53:36;96060.22;;;5.71;100.00
30339;BME280;795;49.296;11.348;2022-11-15T06:56:07;96065.03;;;5.94;100.00
30339;BME280;795;49.296;11.348;2022-11-15T06:58:34;96073.19;;;6.11;100.00
30339;BME280;795;49.296;11.348;2022-11-15T07:01:10;96065.53;;;6.43;100.00
30339;BME280;795;49.296;11.348;2022-11-15T07:03:42;96066.31;;;6.71;100.00
30339;BME280;795;49.296;11.348;2022-11-15T07:06:10;96070.41;;;6.83;100.00
30339;BME280;795;49.296;11.348;2022-11-15T07:08:37;96073.19;;;6.99;100.00
30339;BME280;795;49.296;11.348;2022-11-15T07:11:07;96071.28;;;7.34;100.00
30339;BME280;795;49.296;11.348;2022-11-15T07:13:35;96066.72;;;7.53;100.00
30339;BME280;795;49.296;11.348;2022-11-15T07:16:08;96065.41;;;7.57;100.00
30339;BME280;795;49.296;11.348;2022-11-15T07:18:39;96061.50;;;7.77;100.00
30339;BME280;795;49.296;11.348;2022-11-15T07:21:10;96065.13;;;8.01;100.00
30339;BME280;795;49.296;11.348;2022-11-15T07:23:39;96058.84;;;8.27;100.00
30339;BME280;795;49.296;11.348;2022-11-15T07:26:07;96059.78;;;8.76;100.00
30339;BME280;795;49.296;11.348;2022-11-15T07:28:35;96048.72;;;8.95;100.00
30339;BME280;795;49.296;11.348;2022-11-15T07:31:06;96049.25;;;8.98;100.00
30339;BME280;795;49.296;11.348;2022-11-15T07:33:34;96045.38;;;9.09;100.00
30339;BME280;795;49.296;11.348;2022-11-15T07:36:05;96054.22;;;9.25;99.21
30339;BME280;795;49.296;11.348;2022-11-15T07:38:35;96050.19;;;9.38;97.93
30339;BME280;795;49.296;11.348;2022-11-15T07:41:09;96048.63;;;9.67;95.92
30339;BME280;795;49.296;11.348;2022-11-15T07:43:36;96048.59;;;9.75;94.47
30339;BME280;795;49.296;11.348;2022-11-15T07:46:08;96050.94;;;9.78;92.88
30339;BME280;795;49.296;11.348;2022-11-15T07:48:40;96052.47;;;9.73;93.39
30339;BME280;795;49.296;11.348;2022-11-15T07:51:13;96050.44;;;9.67;93.36
30339;BME280;795;49.296;11.348;2022-11-15T07:53:43;96049.06;;;9.79;93.01
30339;BME280;795;49.296;11.348;2022-11-15T07:56:11;96050.69;;;9.96;92.46
30339;BME280;795;49.296;11.348;2022-11-15T07:58:38;96053.78;;;10.24;91.28
30339;BME280;795;49.296;11.348;2022-11-15T08:01:09;96045.31;;;10.12;90.53
30339;BME280;795;49.296;11.348;2022-11-15T08:03:37;96032.44;;;10.30;90.05
30339;BME280;795;49.296;11.348;2022-11-15T08:06:05;96042.69;;;10.57;89.02
30339;BME280;795;49.296;11.348;2022-11-15T08:08:32;96038.84;;;10.52;89.33
30339;BME280;795;49.296;11.348;2022-11-15T08:11:00;96030.53;;;10.70;87.76
30339;BME280;795;49.296;11.348;2022-11-15T08:13:27;96038.53;;;11.15;86.61
30339;BME280;795;49.296;11.348;2022-11-15T08:16:02;96033.88;;;11.46;83.67
30339;BME280;795;49.296;11.348;2022-11-15T08:18:31;96033.16;;;11.67;83.40
30339;BME280;795;49.296;11.348;2022-11-15T08:21:01;96031.69;;;12.23;78.36
30339;BME280;795;49.296;11.348;2022-11-15T08:23:28;96034.16;;;12.39;75.74
30339;BME280;795;49.296;11.348;2022-11-15T08:26:02;96032.56;;;12.44;75.94
30339;BME280;795;49.296;11.348;2022-11-15T08:28:31;96026.19;;;12.88;73.42
30339;BME280;795;49.296;11.348;2022-11-15T08:30:58;96026.66;;;13.12;73.76
30339;BME280;795;49.296;11.348;2022-11-15T08:33:25;96020.09;;;13.77;70.71
30339;BME280;795;49.296;11.348;2022-11-15T08:35:52;96016.88;;;13.94;69.69
30339;BME280;795;49.296;11.348;2022-11-15T08:38:22;96016.75;;;14.09;70.58
30339;BME280;795;49.296;11.348;2022-11-15T08:40:53;96016.00;;;14.22;69.67
30339;BME280;795;49.296;11.348;2022-11-15T08:43:25;96007.22;;;14.13;65.40
30339;BME280;795;49.296;11.348;2022-11-15T08:45:56;96010.66;;;13.94;64.01
30339;BME280;795;49.296;11.348;2022-11-15T08:48:23;96007.91;;;14.28;64.32
30339;BME280;795;49.296;11.348;2022-11-15T08:50:55;96008.50;;;14.71;62.20
30339;BME280;795;49.296;11.348;2022-11-15T08:53:23;96009.41;;;15.24;61.52
30339;BME280;795;49.296;11.348;2022-11-15T08:55:50;96006.31;;;15.47;61.30
30339;BME280;795;49.296;11.348;2022-11-15T08:58:17;96011.06;;;15.84;59.37
30339;BME280;795;49.296;11.348;2022-11-15T09:03:52;96012.75;;;15.46;62.16
30339;BME280;795;49.296;11.348;2022-11-15T09:06:19;96011.94;;;15.45;61.48
30339;BME280;795;49.296;11.348;2022-11-15T09:08:46;95994.41;;;15.67;61.58
30339;BME280;795;49.296;11.348;2022-11-15T09:11:14;96000.28;;;15.51;60.85
30339;BME280;795;49.296;11.348;2022-11-15T09:13:43;95987.75;;;15.70;58.79
30339;BME280;795;49.296;11.348;2022-11-15T09:16:10;95994.78;;;15.97;58.23
30339;BME280;795;49.296;11.348;2022-11-15T09:18:38;95985.50;;;16.31;56.52
30339;BME280;795;49.296;11.348;2022-11-15T09:21:05;95985.22;;;16.52;55.79
30339;BME280;795;49.296;11.348;2022-11-15T09:23:32;95981.81;;;17.01;53.84
30339;BME280;795;49.296;11.348;2022-11-15T09:26:04;95987.78;;;17.41;52.79
30339;BME280;795;49.296;11.348;2022-11-15T09:28:33;95990.22;;;16.93;51.66
30339;BME280;795;49.296;11.348;2022-11-15T09:31:05;95995.09;;;17.09;52.12
30339;BME280;795;49.296;11.348;2022-11-15T09:33:32;95985.03;;;16.85;52.44
30339;BME280;795;49.296;11.348;2022-11-15T09:36:07;95979.09;;;16.70;52.43
30339;BME280;795;49.296;11.348;2022-11-15T09:38:35;95978.25;;;16.69;52.83
30339;BME280;795;49.296;11.348;2022-11-15T09:41:51;95977.00;;;16.21;55.47
30339;BME280;795;49.296;11.348;2022-11-15T09:48:03;95966.56;;;16.24;55.66
30339;BME280;795;49.296;11.348;2022-11-15T09:50:55;95961.41;;;16.61;53.71
30339;BME280;795;49.296;11.348;2022-11-15T09:53:58;95955.88;;;16.80;54.04
30339;BME280;795;49.296;11.348;2022-11-15T09:56:47;95964.03;;;16.80;54.22
30339;BME280;795;49.296;11.348;2022-11-15T09:59:53;95963.22;;;17.04;53.88
30339;BME280;795;49.296;11.348;2022-11-15T10:03:10;95957.63;;;17.55;51.31
30339;BME280;795;49.296;11.348;2022-11-15T10:05:52;95954.16;;;17.66;51.26
30339;BME280;795;49.296;11.348;2022-11-15T10:11:49;95940.41;;;17.61;50.48
30339;BME280;795;49.296;11.348;2022-11-15T10:14:22;95938.34;;;18.00;50.39
30339;BME280;795;49.296;11.348;2022-11-15T10:17:26;95934.78;;;18.17;50.82
30339;BME280;795;49.296;11.348;2022-11-15T10:20:20;95928.31;;;18.00;50.10
30339;BME280;795;49.296;11.348;2022-11-15T10:23:06;95922.28;;;18.16;49.14
30339;BME280;795;49.296;11.348;2022-11-15T10:25:34;95913.56;;;19.27;48.37
30339;BME280;795;49.296;11.348;2022-11-15T10:28:15;95916.78;;;18.82;47.75
30339;BME280;795;49.296;11.348;2022-11-15T10:30:48;95906.63;;;18.48;48.37
30339;BME280;795;49.296;11.348;2022-11-15T10:33:37;95910.31;;;18.35;48.79
30339;BME280;795;49.296;11.348;2022-11-15T10:36:20;95899.56;;;18.11;49.52
30339;BME280;795;49.296;11.348;2022-11-15T10:49:30;95885.09;;;18.88;49.83
30339;BME280;795;49.296;11.348;2022-11-15T10:52:18;95870.03;;;19.15;47.78
30339;BME280;795;49.296;11.348;2022-11-15T10:55:05;95867.78;;;20.33;46.22
30339;BME280;795;49.296;11.348;2022-11-15T10:58:01;95862.53;;;20.43;44.69
30339;BME280;795;49.296;11.348;2022-11-15T11:00:38;95861.63;;;20.82;43.74
30339;BME280;795;49.296;11.348;2022-11-15T11:03:37;95856.97;;;21.28;43.55
30339;BME280;795;49.296;11.348;2022-11-15T11:06:17;95856.44;;;20.24;44.78
30339;BME280;795;49.296;11.348;2022-11-15T11:09:05;95858.53;;;20.62;44.52
30339;BME280;795;49.296;11.348;2022-11-15T11:11:51;95855.34;;;20.37;44.78
30339;BME280;795;49.296;11.348;2022-11-15T11:14:33;95857.91;;;20.43;45.01
30339;BME280;795;49.296;11.348;2022-11-15T11:20:17;95843.72;;;19.90;46.08
30339;BME280;795;49.296;11.348;2022-11-15T11:23:59;95844.84;;;20.06;44.95
30339;BME280;795;49.296;11.348;2022-11-15T11:26:49;95836.81;;;19.99;45.88
30339;BME280;795;49.296;11.348;2022-11-15T11:33:16;95842.00;;;19.61;46.49
30339;BME280;795;49.296;11.348;2022-11-15T11:36:27;95830.41;;;19.42;46.98
30339;BME280;795;49.296;11.348;2022-11-15T11:40:08;95827.91;;;19.17;47.73
30339;BME280;795;49.296;11.348;2022-11-15T11:49:42;95820.22;;;19.14;47.83
30339;BME280;795;49.296;11.348;2022-11-15T11:52:31;95815.72;;;19.32;48.77
30339;BME280;795;49.296;11.348;2022-11-15T11:55:43;95814.72;;;19.72;47.77
30339;BME280;795;49.296;11.348;2022-11-15T11:58:37;95805.94;;;19.82;46.68
30339;BME280;795;49.296;11.348;2022-11-15T12:01:29;95796.94;;;19.93;47.20
30339;BME280;795;49.296;11.348;2022-11-15T12:13:12;95785.66;;;19.61;47.09
30339;BME280;795;49.296;11.348;2022-11-15T12:15:57;95777.41;;;19.45;47.69
30339;BME280;795;49.296;11.348;2022-11-15T12:18:35;95783.88;;;19.55;47.46
30339;BME280;795;49.296;11.348;2022-11-15T12:21:21;95780.47;;;19.25;47.94
30339;BME280;795;49.296;11.348;2022-11-15T12:24:07;95775.13;;;18.95;48.76
30339;BME280;795;49.296;11.348;2022-11-15T12:26:53;95776.28;;;19.57;47.66
30339;BME280;795;49.296;11.348;2022-11-15T12:29:49;95767.91;;;19.12;48.59
30339;BME280;795;49.296;11.348;2022-11-15T12:32:33;95760.25;;;18.98;48.21
30339;BME280;795;49.296;11.348;2022-11-15T12:35:20;95767.31;;;19.34;47.42
30339;BME280;795;49.296;11.348;2022-11-15T12:37:55;95764.94;;;19.26;47.04
30339;BME280;795;49.296;11.348;2022-11-15T12:43:42;95772.25;;;19.71;46.14
30339;BME280;795;49.296;11.348;2022-11-15T13:02:42;95750.19;;;17.92;51.46
30339;BME280;795;49.296;11.348;2022-11-15T13:20:56;95727.72;;;18.57;50.28
30339;BME280;795;49.296;11.348;2022-11-15T13:23:28;95728.59;;;18.39;51.13
30339;BME280;795;49.296;11.348;2022-11-15T13:26:14;95736.09;;;18.55;49.73
30339;BME280;795;49.296;11.348;2022-11-15T13:28:51;95733.97;;;18.57;50.25
30339;BME280;795;49.296;11.348;2022-11-15T13:31:37;95724.28;;;18.61;49.48
30339;BME280;795;49.296;11.348;2022-11-15T13:34:28;95720.84;;;18.66;49.16
30339;BME280;795;49.296;11.348;2022-11-15T13:37:36;95724.03;;;19.20;48.90
30339;BME280;795;49.296;11.348;2022-11-15T13:40:33;95733.94;;;19.38;48.11
30339;BME280;795;49.296;11.348;2022-11-15T13:46:30;95734.31;;;19.07;48.57
30339;BME280;795;49.296;11.348;2022-11-15T13:49:07;95722.84;;;19.16;47.97
30339;BME280;795;49.296;11.348;2022-11-15T13:51:53;95728.06;;;18.60;49.56
30339;BME280;795;49.296;11.348;2022-11-15T13:57:15;95709.28;;;18.06;51.06
30339;BME280;795;49.296;11.348;2022-11-15T13:59:59;95715.09;;;17.79;52.52
30339;BME280;795;49.296;11.348;2022-11-15T14:02:33;95699.06;;;17.89;52.69
30339;BME280;795;49.296;11.348;2022-11-15T14:05:30;95697.81;;;16.90;55.63
30339;BME280;795;49.296;11.348;2022-11-15T14:08:04;95693.22;;;15.98;57.31
30339;BME280;795;49.296;11.348;2022-11-15T14:10:39;95682.53;;;15.47;60.11
30339;BME280;795;49.296;11.348;2022-11-15T14:13:30;95679.38;;;15.50;60.05
30339;BME280;795;49.296;11.348;2022-11-15T14:16:19;95674.19;;;15.49;59.82
30339;BME280;795;49.296;11.348;2022-11-15T14:18:52;95667.34;;;15.40;60.76
30339;BME280;795;49.296;11.348;2022-11-15T14:21:20;95667.03;;;15.16;61.89
30339;BME280;795;49.296;11.348;2022-11-15T14:23:47;95662.38;;;14.92;62.08
30339;BME280;795;49.296;11.348;2022-11-15T14:26:34;95652.06;;;14.70;63.83
30339;BME280;795;49.296;11.348;2022-11-15T14:29:26;95657.66;;;14.75;64.16
30339;BME280;795;49.296;11.348;2022-11-15T14:32:13;95659.22;;;15.02;62.98
30339;BME280;795;49.296;11.348;2022-11-15T14:34:41;95663.59;;;15.41;62.16
30339;BME280;795;49.296;11.348;2022-11-15T14:37:29;95658.50;;;15.64;60.77
30339;BME280;795;49.296;11.348;2022-11-15T14:40:05;95668.88;;;15.98;60.61
30339;BME280;795;49.296;11.348;2022-11-15T14:42:32;95659.97;;;15.91;59.83
30339;BME280;795;49.296;11.348;2022-11-15T14:44:59;95657.09;;;15.86;59.34
30339;BME280;795;49.296;11.348;2022-11-15T14:47:26;95656.69;;;15.51;60.50
30339;BME280;795;49.296;11.348;2022-11-15T14:49:53;95654.09;;;14.81;63.87
30339;BME280;795;49.296;11.348;2022-11-15T14:52:29;95651.53;;;13.89;68.61
30339;BME280;795;49.296;11.348;2022-11-15T14:55:00;95658.91;;;13.21;72.90
30339;BME280;795;49.296;11.348;2022-11-15T14:57:30;95653.16;;;12.84;74.57
30339;BME280;795;49.296;11.348;2022-11-15T14:59:57;95650.53;;;12.49;76.52
30339;BME280;795;49.296;11.348;2022-11-15T15:02:26;95636.09;;;12.23;80.00
30339;BME280;795;49.296;11.348;2022-11-15T15:04:54;95648.19;;;12.06;81.66
30339;BME280;795;49.296;11.348;2022-11-15T15:07:22;95635.59;;;11.85;83.56
30339;BME280;795;49.296;11.348;2022-11-15T15:09:49;95637.13;;;11.45;88.88
30339;BME280;795;49.296;11.348;2022-11-15T15:12:23;95631.19;;;11.28;91.97
30339;BME280;795;49.296;11.348;2022-11-15T15:14:50;95639.03;;;11.09;95.72
30339;BME280;795;49.296;11.348;2022-11-15T15:17:17;95631.59;;;10.90;96.87
30339;BME280;795;49.296;11.348;2022-11-15T15:19:44;95635.91;;;10.70;99.21
30339;BME280;795;49.296;11.348;2022-11-15T15:22:19;95626.47;;;10.59;100.00
30339;BME280;795;49.296;11.348;2022-11-15T15:24:48;95623.91;;;10.51;100.00
30339;BME280;795;49.296;11.348;2022-11-15T15:27:15;95612.00;;;10.39;100.00